Time;durP1;ratioP1;P1;durP2;ratioP2;P2;SDS_P1;SDS_P2;PMS_P1;PMS_P2;Temp;Humidity;BMP_temperature;BMP_pressure;BME280_temperature;BME280_humidity;BME280_pressure;Samples;Min_cycle;Max_cycle;Signal;HPM_P1;HPM_P2
2022/08/20 00:00:53;;;;;;;16.57;4.95;;;;;;;16.79;100.00;100419.41;1736029;82;20992;-44
2022/08/20 00:03:33;;;;;;;12.93;5.00;;;;;;;16.76;100.00;100421.30;1736104;82;21005;-44
2022/08/20 00:06:11;;;;;;;13.68;5.12;;;;;;;16.72;100.00;100423.22;1736481;82;20933;-44
2022/08/20 00:08:38;;;;;;;13.32;5.10;;;;;;;16.69;100.00;100425.11;1736161;82;21148;-44
2022/08/20 00:11:09;;;;;;;17.87;5.12;;;;;;;16.64;100.00;100423.56;1715313;82;20984;-44
2022/08/20 00:13:41;;;;;;;9.23;5.00;;;;;;;16.62;100.00;100418.86;1736132;82;20953;-44
2022/08/20 00:16:09;;;;;;;12.07;5.00;;;;;;;16.61;100.00;100413.25;1736435;82;21380;-44
2022/08/20 00:18:36;;;;;;;10.63;5.20;;;;;;;16.60;100.00;100411.99;1736200;82;20929;-44
2022/08/20 00:21:07;;;;;;;14.25;4.87;;;;;;;16.58;100.00;100405.55;1736130;82;21077;-45
2022/08/20 00:23:40;;;;;;;14.40;5.60;;;;;;;16.57;100.00;100413.00;1736122;81;20838;-44
2022/08/20 00:26:07;;;;;;;12.30;5.50;;;;;;;16.55;100.00;100412.66;1736070;82;21020;-44
2022/08/20 00:28:34;;;;;;;14.30;5.45;;;;;;;16.52;100.00;100412.33;1736310;82;21534;-45
2022/08/20 00:31:03;;;;;;;16.17;5.50;;;;;;;16.51;100.00;100412.80;1715330;82;21507;-45
2022/08/20 00:33:30;;;;;;;11.60;5.80;;;;;;;16.51;100.00;100405.41;1736093;82;21776;-44
2022/08/20 00:35:58;;;;;;;15.18;5.55;;;;;;;16.49;100.00;100404.62;1736129;82;20976;-44
2022/08/20 00:38:25;;;;;;;11.18;5.20;;;;;;;16.47;100.00;100398.18;1736197;82;21008;-44
2022/08/20 00:40:55;;;;;;;6.53;4.65;;;;;;;16.47;100.00;100403.84;1735978;82;20865;-44
2022/08/20 00:43:48;;;;;;;13.13;5.22;;;;;;;16.45;100.00;100398.70;1736024;82;20933;-44
2022/08/20 00:46:26;;;;;;;11.25;4.87;;;;;;;16.43;100.00;100407.52;1735375;82;21284;-45
2022/08/20 00:48:54;;;;;;;15.80;4.87;;;;;;;16.42;100.00;100405.82;1735814;81;20984;-44
2022/08/20 00:51:32;;;;;;;10.43;4.75;;;;;;;16.41;100.00;100401.04;1736093;82;20846;-44
2022/08/20 00:54:10;;;;;;;15.03;6.35;;;;;;;16.42;100.00;100397.55;1735790;81;20933;-45
2022/08/20 00:56:37;;;;;;;13.03;5.58;;;;;;;16.40;100.00;100401.95;1736430;82;20972;-44
2022/08/20 00:59:09;;;;;;;8.78;5.20;;;;;;;16.41;100.00;100398.91;1736120;82;21243;-44
2022/08/20 01:01:35;;;;;;;11.15;5.03;;;;;;;16.41;100.00;100403.65;1736314;82;20925;-44
2022/08/20 01:04:04;;;;;;;13.35;4.67;;;;;;;16.42;100.00;100400.59;1736029;82;21028;-44
2022/08/20 01:06:31;;;;;;;5.58;4.97;;;;;;;16.43;100.00;100404.91;1735965;82;21408;-44
2022/08/20 01:09:00;;;;;;;11.35;5.12;;;;;;;16.40;100.00;100397.20;1735954;81;20929;-44
2022/08/20 01:11:35;;;;;;;14.23;5.83;;;;;;;16.37;100.00;100399.04;1736066;82;21105;-45
2022/08/20 01:16:58;;;;;;;23.32;5.60;;;;;;;16.35;100.00;100400.88;1736097;82;20988;-44
2022/08/20 01:19:33;;;;;;;14.40;5.47;;;;;;;16.37;100.00;100405.57;1735953;82;20881;-44
2022/08/20 01:22:00;;;;;;;8.63;5.28;;;;;;;16.36;100.00;100398.65;1716063;82;21442;-44
2022/08/20 01:24:34;;;;;;;8.20;5.67;;;;;;;16.36;100.00;100407.79;1740708;81;21197;-44
2022/08/20 01:27:02;;;;;;;15.70;5.45;;;;;;;16.34;100.00;100403.09;1744173;82;20916;-44
2022/08/20 01:29:36;;;;;;;8.95;5.37;;;;;;;16.36;100.00;100403.88;1744236;82;20996;-44
2022/08/20 01:32:05;;;;;;;13.25;6.12;;;;;;;16.37;100.00;100402.95;1744193;82;20940;-44
2022/08/20 01:34:32;;;;;;;8.33;5.67;;;;;;;16.37;100.00;100400.34;1744247;82;20985;-44
2022/08/20 01:36:59;;;;;;;9.03;5.47;;;;;;;16.37;100.00;100400.34;1744187;82;22709;-44
2022/08/20 01:39:30;;;;;;;12.80;5.28;;;;;;;16.40;100.00;100400.65;1743894;81;20964;-44
2022/08/20 01:42:08;;;;;;;15.05;5.83;;;;;;;16.40;100.00;100404.56;1744070;82;20928;-44
2022/08/20 01:44:37;;;;;;;11.22;5.65;;;;;;;16.42;100.00;100405.82;1744110;82;21023;-44
2022/08/20 01:47:18;;;;;;;16.23;5.75;;;;;;;16.45;100.00;100412.21;1744273;82;20936;-44
2022/08/20 01:49:50;;;;;;;12.65;5.95;;;;;;;16.48;100.00;100409.46;1744052;82;21384;-44
2022/08/20 01:52:34;;;;;;;10.05;6.55;;;;;;;16.48;100.00;100412.94;1743715;82;20940;-44
2022/08/20 01:55:01;;;;;;;7.67;5.33;;;;;;;16.48;100.00;100414.69;1740590;82;20965;-44
2022/08/20 01:57:28;;;;;;;9.38;5.15;;;;;;;16.47;100.00;100422.13;1744127;80;20933;-45
2022/08/20 01:59:55;;;;;;;9.33;5.97;;;;;;;16.45;100.00;100422.66;1744216;82;20948;-44
2022/08/20 02:02:23;;;;;;;7.80;5.50;;;;;;;16.42;100.00;100425.41;1744189;82;21231;-44
2022/08/20 02:04:50;;;;;;;11.18;6.12;;;;;;;16.41;100.00;100434.16;1744069;82;20932;-44
2022/08/20 02:07:20;;;;;;;9.40;6.05;;;;;;;16.37;100.00;100434.30;1744199;82;20915;-44
2022/08/20 02:09:47;;;;;;;10.30;5.95;;;;;;;16.37;100.00;100439.52;1744006;82;20925;-45
2022/08/20 02:12:14;;;;;;;6.78;5.62;;;;;;;16.39;100.00;100440.75;1744274;81;20944;-44
2022/08/20 02:14:46;;;;;;;21.33;5.75;;;;;;;16.39;100.00;100444.66;1744160;82;21344;-44
2022/08/20 02:17:13;;;;;;;6.22;5.60;;;;;;;16.38;100.00;100445.14;1744311;82;21554;-44
2022/08/20 02:19:51;;;;;;;11.70;6.75;;;;;;;16.38;100.00;100445.58;1744204;82;20897;-44
2022/08/20 02:22:35;;;;;;;14.38;6.47;;;;;;;16.38;100.00;100445.14;1744119;82;20941;-44
2022/08/20 02:25:04;;;;;;;7.25;6.55;;;;;;;16.41;100.00;100449.84;1748155;82;20988;-44
2022/08/20 02:27:34;;;;;;;8.30;6.62;;;;;;;16.42;100.00;100458.06;1750323;82;21126;-44
2022/08/20 02:30:02;;;;;;;9.45;6.60;;;;;;;16.42;100.00;100450.23;1749890;82;20936;-44
2022/08/20 02:32:30;;;;;;;9.60;7.12;;;;;;;16.46;100.00;100456.56;1750031;82;20924;-44
2022/08/20 02:34:57;;;;;;;10.45;6.67;;;;;;;16.49;100.00;100459.48;1722598;82;20900;-44
2022/08/20 02:37:24;;;;;;;9.50;7.87;;;;;;;16.55;100.00;100461.86;1750192;81;21526;-44
2022/08/20 02:39:51;;;;;;;14.83;8.40;;;;;;;16.62;100.00;100463.28;1750025;82;21141;-44
2022/08/20 02:42:17;;;;;;;12.45;7.92;;;;;;;16.70;100.00;100462.95;1750186;82;21019;-44
2022/08/20 02:44:45;;;;;;;17.23;9.40;;;;;;;16.78;100.00;100466.50;1750178;82;21833;-44
2022/08/20 02:47:12;;;;;;;16.40;10.55;;;;;;;16.86;100.00;100472.27;1750011;82;20928;-44
2022/08/20 02:49:39;;;;;;;18.12;10.43;;;;;;;16.94;100.00;100470.63;1749888;82;20928;-44
2022/08/20 02:52:06;;;;;;;21.30;9.88;;;;;;;17.03;100.00;100474.59;1750024;82;21241;-44
2022/08/20 02:54:34;;;;;;;16.80;10.08;;;;;;;17.07;100.00;100474.39;1749920;82;20964;-44
2022/08/20 02:57:02;;;;;;;16.10;9.55;;;;;;;17.14;100.00;100471.49;1749782;82;20960;-44
2022/08/20 02:59:29;;;;;;;13.18;8.70;;;;;;;17.18;100.00;100472.59;1749928;82;20972;-44
2022/08/20 03:01:56;;;;;;;11.45;9.20;;;;;;;17.21;100.00;100463.78;1750064;82;20964;-45
2022/08/20 03:04:22;;;;;;;15.53;9.48;;;;;;;17.24;100.00;100471.48;1749906;81;21493;-44
2022/08/20 03:06:49;;;;;;;11.55;8.25;;;;;;;17.25;100.00;100474.48;1749942;82;20977;-44
2022/08/20 03:09:17;;;;;;;12.50;8.28;;;;;;;17.25;100.00;100477.09;1749978;82;20980;-44
2022/08/20 03:11:44;;;;;;;15.00;8.30;;;;;;;17.26;100.00;100475.31;1749886;81;20876;-45
2022/08/20 03:14:11;;;;;;;11.48;8.03;;;;;;;17.23;100.00;100474.53;1750152;82;21497;-44
2022/08/20 03:16:39;;;;;;;15.98;8.25;;;;;;;17.22;100.00;100489.84;1750059;82;21248;-44
2022/08/20 03:19:07;;;;;;;8.03;7.22;;;;;;;17.22;100.00;100485.92;1749951;82;21000;-44
2022/08/20 03:21:34;;;;;;;8.05;7.25;;;;;;;17.22;100.00;100493.77;1722468;82;20987;-45
2022/08/20 03:24:01;;;;;;;10.82;7.62;;;;;;;17.24;100.00;100492.40;1749825;81;20972;-44
2022/08/20 03:26:28;;;;;;;28.90;16.17;;;;;;;17.24;100.00;100497.16;1750024;82;20976;-44
2022/08/20 03:28:55;;;;;;;33.00;17.87;;;;;;;17.29;100.00;100490.86;1750032;82;21236;-44
2022/08/20 03:31:22;;;;;;;28.45;17.27;;;;;;;17.32;100.00;100495.50;1749954;82;20873;-44
2022/08/20 03:33:49;;;;;;;23.90;15.28;;;;;;;17.38;100.00;100487.84;1750071;82;20932;-45
2022/08/20 03:36:15;;;;;;;18.65;12.15;;;;;;;17.46;100.00;100493.55;1749887;82;20935;-45
2022/08/20 03:40:07;;;;;;;13.55;9.23;;;;;;;17.60;100.00;100490.28;1798346;79;22535;-43
2022/08/20 03:42:33;;;;;;;10.75;9.60;;;;;;;17.60;100.00;100484.22;1739268;81;20956;-44
2022/08/20 03:45:00;;;;;;;13.10;8.65;;;;;;;17.63;100.00;100480.14;1755991;81;21245;-45
2022/08/20 03:47:28;;;;;;;15.70;9.45;;;;;;;17.66;100.00;100486.53;1749872;82;20968;-44
2022/08/20 03:49:59;;;;;;;11.38;7.78;;;;;;;17.67;100.00;100486.92;1749960;82;20879;-44
2022/08/20 03:52:28;;;;;;;13.40;8.23;;;;;;;17.70;100.00;100487.25;1749804;82;20932;-44
2022/08/20 03:54:57;;;;;;;10.48;7.37;;;;;;;17.73;100.00;100480.08;1749887;80;20932;-44
2022/08/20 03:57:24;;;;;;;11.35;7.70;;;;;;;17.76;100.00;100478.62;1749873;81;21347;-44
2022/08/20 03:59:51;;;;;;;13.15;8.08;;;;;;;17.79;100.00;100486.31;1749788;82;20905;-44
2022/08/20 04:02:18;;;;;;;11.33;7.65;;;;;;;17.85;100.00;100486.48;1749920;82;20889;-44
2022/08/20 04:04:44;;;;;;;10.78;7.22;;;;;;;17.90;100.00;100485.80;1749956;82;21490;-44
2022/08/20 04:07:24;;;;;;;8.83;6.45;;;;;;;18.00;100.00;100487.51;1749810;82;20885;-44
2022/08/20 04:09:47;;;;;;;9.58;6.67;;;;;;;18.13;100.00;100493.02;1749473;80;21787;-44
2022/08/20 04:12:13;;;;;;;8.20;6.55;;;;;;;18.29;100.00;100483.93;1749791;81;20960;-44
2022/08/20 04:14:40;;;;;;;9.03;6.15;;;;;;;18.45;100.00;100478.78;1749877;82;20916;-44
2022/08/20 04:17:08;;;;;;;9.40;7.17;;;;;;;18.63;100.00;100478.29;1749958;82;20972;-44
2022/08/20 04:19:36;;;;;;;11.83;6.00;;;;;;;18.84;100.00;100479.41;1749977;81;20968;-44
2022/08/20 04:22:04;;;;;;;12.45;6.00;;;;;;;19.04;100.00;100477.51;1749837;82;21217;-44
2022/08/20 04:24:31;;;;;;;12.63;5.50;;;;;;;19.23;100.00;100483.94;1750274;82;20951;-44
2022/08/20 04:27:01;;;;;;;11.03;5.78;;;;;;;19.41;100.00;100479.45;1749804;81;20987;-44
2022/08/20 04:29:29;;;;;;;17.32;5.50;;;;;;;19.61;100.00;100478.34;1750132;82;20973;-44
2022/08/20 04:31:56;;;;;;;15.00;5.15;;;;;;;19.80;100.00;100482.55;1749937;82;20940;-45
2022/08/20 04:34:23;;;;;;;13.68;5.42;;;;;;;19.96;100.00;100485.18;1749938;82;21138;-45
2022/08/20 04:36:50;;;;;;;13.85;4.95;;;;;;;20.07;100.00;100484.08;1749896;81;20925;-44
2022/08/20 04:39:17;;;;;;;17.65;5.28;;;;;;;20.27;100.00;100475.98;1742247;81;21479;-45
2022/08/20 04:41:44;;;;;;;15.48;5.28;;;;;;;20.43;100.00;100481.17;1736556;82;21424;-44
2022/08/20 04:44:11;;;;;;;11.22;4.75;;;;;;;20.56;100.00;100480.80;1736708;82;20854;-45
2022/08/20 04:46:39;;;;;;;21.87;5.33;;;;;;;20.70;100.00;100475.19;1736963;82;21503;-44
2022/08/20 04:49:06;;;;;;;18.45;4.67;;;;;;;20.86;100.00;100475.13;1736455;82;20917;-45
2022/08/20 04:51:34;;;;;;;18.30;5.78;;;;;;;20.98;100.00;100477.47;1736119;81;20893;-44
2022/08/20 04:54:02;;;;;;;25.82;6.80;;;;;;;21.08;100.00;100483.84;1736074;82;20886;-44
2022/08/20 04:56:33;;;;;;;26.40;7.00;;;;;;;21.18;100.00;100486.74;1736166;82;20916;-44
2022/08/20 04:59:00;;;;;;;18.55;6.08;;;;;;;21.22;100.00;100480.38;1736157;82;21165;-44
2022/08/20 05:01:28;;;;;;;14.28;5.80;;;;;;;21.28;100.00;100483.06;1736096;82;21019;-44
2022/08/20 05:03:55;;;;;;;29.67;6.47;;;;;;;21.31;100.00;100488.13;1735991;82;21518;-44
2022/08/20 05:06:27;;;;;;;22.35;6.28;;;;;;;21.33;100.00;100493.69;1736111;82;20898;-44
2022/08/20 05:08:56;;;;;;;19.37;5.53;;;;;;;21.33;100.00;100495.45;1736025;82;20901;-45
2022/08/20 05:11:24;;;;;;;16.50;5.53;;;;;;;21.33;100.00;100499.41;1736015;82;21974;-45
2022/08/20 05:13:51;;;;;;;18.10;4.87;;;;;;;21.40;100.00;100503.36;1736040;82;20930;-44
2022/08/20 05:16:19;;;;;;;18.07;4.85;;;;;;;21.49;100.00;100498.81;1735969;82;20976;-44
2022/08/20 05:18:46;;;;;;;17.25;5.45;;;;;;;21.55;100.00;100502.86;1739536;82;20941;-45
2022/08/20 05:21:13;;;;;;;13.15;4.80;;;;;;;21.62;100.00;100505.45;1736081;82;21076;-45
2022/08/20 05:23:41;;;;;;;14.98;4.58;;;;;;;21.71;100.00;100497.92;1736136;82;21138;-45
2022/08/20 05:26:09;;;;;;;18.70;5.55;;;;;;;21.77;100.00;100494.92;1736008;82;20937;-45
2022/08/20 05:28:38;;;;;;;18.48;4.87;;;;;;;21.81;100.00;100495.91;1736024;82;20921;-45
2022/08/20 05:31:08;;;;;;;15.80;5.75;;;;;;;21.81;100.00;100499.87;1736173;82;21447;-45
2022/08/20 05:33:36;;;;;;;25.15;5.28;;;;;;;21.77;100.00;100501.50;1736007;82;20968;-45
2022/08/20 05:36:05;;;;;;;17.98;4.85;;;;;;;21.77;100.00;100501.02;1736163;82;21269;-45
2022/08/20 05:38:33;;;;;;;24.25;5.35;;;;;;;21.77;100.00;100500.19;1737827;81;20928;-45
2022/08/20 05:41:01;;;;;;;24.45;5.03;;;;;;;21.78;100.00;100505.34;1749915;82;20869;-44
2022/08/20 05:43:28;;;;;;;26.57;5.28;;;;;;;21.77;100.00;100504.97;1750063;82;20975;-45
2022/08/20 05:45:57;;;;;;;22.20;5.40;;;;;;;21.74;100.00;100509.61;1750027;82;20988;-45
2022/08/20 05:48:24;;;;;;;25.68;5.47;;;;;;;21.68;100.00;100510.84;1749963;81;21298;-44
2022/08/20 05:50:53;;;;;;;22.80;6.42;;;;;;;21.66;100.00;100512.73;1749845;82;21490;-45
2022/08/20 05:53:22;;;;;;;24.23;5.83;;;;;;;21.62;100.00;100516.48;1749975;82;21323;-44
2022/08/20 05:55:49;;;;;;;23.65;6.10;;;;;;;21.54;100.00;100523.06;1750054;82;20948;-44
2022/08/20 05:58:21;;;;;;;26.37;6.30;;;;;;;21.46;100.00;100514.81;1750069;82;20952;-44
2022/08/20 06:00:48;;;;;;;27.70;5.60;;;;;;;21.47;100.00;100515.19;1750247;82;21191;-44
2022/08/20 06:06:03;;;;;;;32.48;5.80;;;;;;;21.45;100.00;100509.17;1750224;82;27075;-44
2022/08/20 06:08:30;;;;;;;20.48;6.22;;;;;;;21.46;100.00;100511.32;1750055;80;20861;-44
2022/08/20 06:10:57;;;;;;;43.38;6.20;;;;;;;21.51;100.00;100510.09;1750092;82;20972;-44
2022/08/20 06:13:26;;;;;;;22.45;5.87;;;;;;;21.59;100.00;100523.23;1750005;82;21242;-44
2022/08/20 06:15:53;;;;;;;24.77;5.60;;;;;;;21.68;100.00;100520.89;1749872;81;20908;-44
2022/08/20 06:18:20;;;;;;;28.62;5.95;;;;;;;21.78;100.00;100516.36;1749859;82;22302;-44
2022/08/20 06:20:49;;;;;;;26.70;5.97;;;;;;;21.83;100.00;100516.91;1749898;82;20901;-45
2022/08/20 06:23:17;;;;;;;31.95;6.65;;;;;;;21.93;100.00;100519.78;1750076;82;20968;-44
2022/08/20 06:25:44;;;;;;;30.85;5.90;;;;;;;22.04;100.00;100522.55;1750001;82;21239;-44
2022/08/20 06:28:13;;;;;;;33.65;5.83;;;;;;;22.08;100.00;100520.56;1749991;82;20991;-44
2022/08/20 06:30:40;;;;;;;35.52;6.83;;;;;;;22.08;100.00;100516.61;1749870;82;20861;-44
2022/08/20 06:33:08;;;;;;;26.75;5.60;;;;;;;22.11;100.00;100516.41;1749998;82;21414;-44
2022/08/20 06:35:36;;;;;;;33.20;6.53;;;;;;;22.17;100.00;100514.67;1749977;82;20924;-44
2022/08/20 06:38:04;;;;;;;41.92;7.95;;;;;;;22.23;100.00;100502.88;1749919;81;21177;-44
2022/08/20 06:40:33;;;;;;;30.82;8.03;;;;;;;22.27;100.00;100505.68;1749773;81;20992;-44
2022/08/20 06:43:00;;;;;;;34.23;7.40;;;;;;;22.35;100.00;100503.85;1749925;82;21375;-44
2022/08/20 06:45:30;;;;;;;33.70;6.78;;;;;;;22.47;100.00;100496.94;1749941;82;20913;-44
2022/08/20 06:48:00;;;;;;;28.35;6.03;;;;;;;22.55;100.00;100498.56;1750016;82;20928;-44
2022/08/20 06:50:32;;;;;;;31.27;6.65;;;;;;;22.66;100.00;100498.69;1750043;82;21096;-44
2022/08/20 06:52:59;;;;;;;32.13;6.65;;;;;;;22.80;100.00;100497.73;1749066;82;20881;-44
2022/08/20 06:55:25;;;;;;;28.47;6.60;;;;;;;22.92;99.18;100499.13;1750253;82;21522;-44
2022/08/20 06:58:00;;;;;;;32.17;7.00;;;;;;;23.00;99.71;100503.88;1750035;82;21514;-44
2022/08/20 07:00:28;;;;;;;35.92;6.65;;;;;;;23.11;100.00;100494.25;1722347;82;21501;-44
2022/08/20 07:02:58;;;;;;;20.62;7.28;;;;;;;23.23;100.00;100495.63;1749934;82;21249;-44
2022/08/20 07:05:25;;;;;;;34.88;7.55;;;;;;;23.28;96.22;100493.56;1749825;82;21553;-44
2022/08/20 07:07:52;;;;;;;32.55;7.20;;;;;;;23.28;96.36;100491.39;1749817;82;21438;-44
2022/08/20 07:10:19;;;;;;;27.65;6.65;;;;;;;23.33;97.12;100488.80;1749926;82;20984;-44
2022/08/20 07:12:49;;;;;;;22.85;6.72;;;;;;;23.43;97.22;100485.47;1749990;82;20921;-44
2022/08/20 07:15:16;;;;;;;32.08;6.80;;;;;;;23.49;95.95;100489.84;1750002;82;21274;-45
2022/08/20 07:17:53;;;;;;;35.33;7.75;;;;;;;23.53;95.02;100483.38;1749997;82;21573;-44
2022/08/20 07:20:20;;;;;;;35.73;7.70;;;;;;;23.61;94.85;100479.32;1750084;80;21427;-44
2022/08/20 07:22:47;;;;;;;31.15;7.25;;;;;;;23.66;93.33;100474.57;1749918;82;20968;-45
2022/08/20 07:25:17;;;;;;;28.42;7.35;;;;;;;23.77;93.90;100478.56;1749958;81;21282;-45
2022/08/20 07:27:44;;;;;;;26.25;8.05;;;;;;;23.94;93.85;100476.48;1749805;81;22061;-45
2022/08/20 07:33:03;;;;;;;36.77;6.87;;;;;;;24.33;92.96;100465.19;1749921;81;21478;-44
2022/08/20 07:35:30;;;;;;;31.15;7.83;;;;;;;24.48;89.81;100468.95;1749738;80;20968;-44
2022/08/20 07:37:57;;;;;;;27.73;6.83;;;;;;;24.58;88.96;100472.55;1750107;82;20968;-44
2022/08/20 07:40:27;;;;;;;33.40;7.00;;;;;;;24.66;88.05;100474.61;1749946;81;21224;-45
2022/08/20 07:42:57;;;;;;;27.80;7.03;;;;;;;24.71;89.35;100470.28;1749755;81;20936;-44
2022/08/20 07:45:24;;;;;;;31.33;7.22;;;;;;;24.92;90.48;100481.02;1750033;82;20853;-43
2022/08/20 07:47:54;;;;;;;34.20;9.53;;;;;;;25.15;88.89;100477.02;1749984;82;21036;-43
2022/08/20 07:50:24;;;;;;;32.15;8.23;;;;;;;25.30;86.59;100480.23;1749875;82;21442;-44
2022/08/20 07:52:52;;;;;;;33.48;9.13;;;;;;;25.39;86.93;100484.31;1749965;82;21828;-44
2022/08/20 07:55:20;;;;;;;24.07;7.62;;;;;;;25.54;87.74;100490.20;1749844;82;20896;-44
2022/08/20 07:57:49;;;;;;;32.60;7.00;;;;;;;25.72;85.21;100489.67;1739050;82;20948;-44
2022/08/20 08:00:17;;;;;;;35.58;6.78;;;;;;;25.82;82.19;100495.06;1749774;82;20960;-44
2022/08/20 08:02:45;;;;;;;27.13;7.05;;;;;;;25.94;81.61;100490.05;1750186;82;20925;-44
2022/08/20 08:05:12;;;;;;;29.95;6.97;;;;;;;26.06;81.43;100486.86;1749644;82;21964;-45
2022/08/20 08:07:41;;;;;;;31.52;7.10;;;;;;;26.15;80.39;100484.42;1750127;82;20893;-45
2022/08/20 08:10:10;;;;;;;26.50;6.90;;;;;;;26.14;79.85;100486.69;1749876;82;21406;-44
2022/08/20 08:12:41;;;;;;;29.63;7.90;;;;;;;26.22;80.98;100482.95;1749837;82;20972;-45
2022/08/20 08:15:15;;;;;;;31.55;8.35;;;;;;;26.27;78.73;100473.27;1750035;81;20972;-44
2022/08/20 08:17:43;;;;;;;39.18;7.50;;;;;;;26.22;78.10;100479.80;1749846;82;21127;-45
2022/08/20 08:20:13;;;;;;;27.25;7.40;;;;;;;26.25;78.33;100474.73;1722293;82;20905;-43
2022/08/20 08:22:41;;;;;;;24.90;6.67;;;;;;;26.38;79.75;100470.05;1750047;82;21443;-44
2022/08/20 08:25:11;;;;;;;29.30;7.75;;;;;;;26.63;80.67;100465.28;1749847;82;20878;-46
2022/08/20 08:27:40;;;;;;;39.55;7.78;;;;;;;26.83;77.93;100468.88;1750550;82;20952;-43
2022/08/20 08:30:08;;;;;;;27.55;6.95;;;;;;;26.97;77.93;100472.16;1750085;81;21197;-43
2022/08/20 08:33:26;;;;;;;32.05;8.33;;;;;;;27.05;75.09;100467.50;1750003;82;21514;-44
2022/08/20 08:35:07;;;;;;;24.67;8.03;;;;;;;27.02;75.89;100477.89;1746026;82;20991;-43
2022/08/20 08:37:36;;;;;;;33.28;7.80;;;;;;;27.04;76.22;100481.75;1750303;82;20909;-43
2022/08/20 08:40:05;;;;;;;33.95;7.72;;;;;;;27.13;75.96;100476.12;1749975;81;21580;-43
2022/08/20 08:42:45;;;;;;;32.78;7.12;;;;;;;27.31;76.52;100471.84;1749859;82;21065;-43
2022/08/20 08:45:14;;;;;;;32.58;8.03;;;;;;;27.53;76.25;100470.76;1749382;81;21062;-43
2022/08/20 08:47:42;;;;;;;33.92;8.70;;;;;;;27.78;75.09;100464.54;1750289;82;21042;-43
2022/08/20 08:50:13;;;;;;;27.77;8.00;;;;;;;27.95;72.94;100467.47;1750136;82;20913;-43
2022/08/20 08:52:42;;;;;;;37.75;9.05;;;;;;;28.01;70.61;100470.89;1750090;82;20941;-43
2022/08/20 08:55:12;;;;;;;33.53;8.78;;;;;;;27.99;70.40;100470.20;1749833;81;21191;-43
2022/08/20 08:57:40;;;;;;;40.48;9.15;;;;;;;27.90;70.69;100471.88;1750033;82;20932;-43
2022/08/20 09:00:12;;;;;;;31.70;8.88;;;;;;;27.81;70.58;100472.23;1749949;82;20904;-44
2022/08/20 09:02:41;;;;;;;31.37;8.53;;;;;;;27.86;72.03;100469.63;1749753;80;20960;-43
2022/08/20 09:05:16;;;;;;;30.17;8.65;;;;;;;28.13;74.33;100472.05;1750063;82;21458;-43
2022/08/20 09:07:47;;;;;;;38.65;8.08;;;;;;;28.41;70.92;100465.02;1750150;82;21178;-43
2022/08/20 09:10:14;;;;;;;40.23;8.50;;;;;;;28.56;71.28;100469.38;1749812;81;20889;-44
2022/08/20 09:12:43;;;;;;;30.77;9.03;;;;;;;28.88;72.10;100469.98;1750109;82;21533;-43
2022/08/20 09:15:10;;;;;;;31.23;8.43;;;;;;;29.20;71.50;100465.53;1749973;82;20897;-44
2022/08/20 09:17:38;;;;;;;31.37;8.40;;;;;;;29.46;68.61;100466.16;1749915;80;21477;-45
2022/08/20 09:20:09;;;;;;;33.33;8.15;;;;;;;29.60;68.71;100465.25;1749979;82;21240;-45
2022/08/20 09:22:36;;;;;;;22.25;8.08;;;;;;;29.77;68.34;100456.89;1739422;82;21035;-44
2022/08/20 09:25:04;;;;;;;27.80;8.45;;;;;;;29.92;68.01;100456.69;1749926;81;20956;-44
2022/08/20 09:27:31;;;;;;;25.08;7.67;;;;;;;30.00;64.36;100466.59;1749874;82;20972;-44
2022/08/20 09:30:00;;;;;;;27.70;7.97;;;;;;;29.95;66.26;100460.38;1749971;81;20948;-44
2022/08/20 09:32:27;;;;;;;44.83;9.15;;;;;;;30.03;65.61;100464.13;1750055;81;21109;-44
2022/08/20 09:34:59;;;;;;;38.20;9.05;;;;;;;30.13;63.63;100458.20;1749716;82;20881;-44
2022/08/20 09:37:25;;;;;;;36.55;8.58;;;;;;;30.14;64.75;100460.37;1749615;82;20913;-44
2022/08/20 09:39:52;;;;;;;24.98;8.48;;;;;;;30.18;65.06;100457.23;1722474;81;20908;-44
2022/08/20 09:42:24;;;;;;;32.73;7.17;;;;;;;30.28;62.57;100454.47;1750164;82;20995;-44
2022/08/20 09:44:51;;;;;;;38.13;8.43;;;;;;;30.43;63.37;100452.52;1749948;81;21038;-44
2022/08/20 09:47:18;;;;;;;36.08;8.48;;;;;;;30.57;62.02;100442.59;1750017;82;20926;-44
2022/08/20 09:49:45;;;;;;;39.73;8.60;;;;;;;30.75;61.95;100444.37;1749867;82;20838;-44
2022/08/20 09:52:22;;;;;;;35.95;8.68;;;;;;;30.79;59.83;100441.20;1749921;82;21450;-44
2022/08/20 09:54:50;;;;;;;40.52;8.85;;;;;;;30.70;58.92;100444.03;1744328;82;20833;-44
2022/08/20 09:57:17;;;;;;;30.32;8.15;;;;;;;30.60;59.61;100435.59;1749987;82;21233;-43
2022/08/20 09:59:45;;;;;;;35.70;7.87;;;;;;;30.49;60.24;100434.56;1749573;82;20952;-44
2022/08/20 10:02:12;;;;;;;35.20;9.55;;;;;;;30.33;59.63;100437.47;1750045;82;20952;-45
2022/08/20 10:04:39;;;;;;;37.58;9.15;;;;;;;30.33;59.93;100438.80;1750015;81;20971;-45
2022/08/20 10:07:07;;;;;;;36.15;9.58;;;;;;;30.52;61.78;100431.05;1749835;81;21481;-43
2022/08/20 10:09:35;;;;;;;34.27;8.35;;;;;;;30.73;61.53;100432.51;1749919;82;21128;-45
2022/08/20 10:12:03;;;;;;;30.70;8.33;;;;;;;30.96;60.82;100437.26;1749732;82;21003;-44
2022/08/20 10:14:30;;;;;;;26.15;7.83;;;;;;;31.13;60.56;100435.45;1749848;81;20972;-45
2022/08/20 10:16:58;;;;;;;33.05;8.98;;;;;;;31.12;59.31;100433.78;1749963;81;21446;-45
2022/08/20 10:19:28;;;;;;;28.50;8.35;;;;;;;31.17;60.05;100434.13;1749853;82;21470;-44
2022/08/20 10:21:56;;;;;;;28.27;8.10;;;;;;;31.21;60.61;100435.52;1749730;82;21356;-44
2022/08/20 10:24:23;;;;;;;26.77;7.60;;;;;;;31.27;59.62;100437.19;1749961;82;20869;-44
2022/08/20 10:26:59;;;;;;;29.07;8.78;;;;;;;31.35;60.23;100440.72;1750014;82;20916;-44
2022/08/20 10:29:26;;;;;;;36.83;8.65;;;;;;;31.56;58.23;100438.55;1749987;82;20928;-44
2022/08/20 10:31:53;;;;;;;33.13;7.97;;;;;;;31.62;57.07;100432.52;1749983;82;20968;-44
2022/08/20 10:34:20;;;;;;;42.75;8.68;;;;;;;31.68;57.87;100436.70;1749930;82;21088;-43
2022/08/20 10:36:47;;;;;;;27.70;8.73;;;;;;;31.80;57.00;100438.58;1749869;81;21330;-43
2022/08/20 10:39:14;;;;;;;32.17;8.63;;;;;;;31.99;57.85;100437.89;1750032;82;20853;-44
2022/08/20 10:41:41;;;;;;;29.37;7.00;;;;;;;32.11;55.75;100439.19;1749833;82;20897;-44
2022/08/20 10:44:08;;;;;;;24.18;7.37;;;;;;;31.99;54.50;100423.66;1750034;81;20980;-44
2022/08/20 10:46:35;;;;;;;41.13;9.00;;;;;;;31.59;57.54;100434.20;1750168;82;21242;-45
2022/08/20 10:49:02;;;;;;;29.42;8.28;;;;;;;31.35;56.23;100427.84;1749951;82;21007;-45
2022/08/20 10:51:29;;;;;;;28.57;7.17;;;;;;;31.36;57.62;100430.36;1749996;82;20979;-44
2022/08/20 10:53:56;;;;;;;28.80;7.78;;;;;;;31.51;57.02;100421.17;1749910;82;20976;-44
2022/08/20 10:56:23;;;;;;;24.43;6.95;;;;;;;31.78;57.40;100428.55;1750023;82;20849;-44
2022/08/20 10:58:50;;;;;;;25.82;6.67;;;;;;;32.06;58.07;100426.83;1750004;82;21293;-44
2022/08/20 11:01:17;;;;;;;26.90;7.30;;;;;;;32.35;54.01;100431.31;1749770;82;21010;-44
2022/08/20 11:03:44;;;;;;;29.52;6.97;;;;;;;32.49;54.76;100419.05;1749923;82;20916;-44
2022/08/20 11:06:11;;;;;;;26.50;7.17;;;;;;;32.63;53.35;100420.98;1749953;81;21088;-44
2022/08/20 11:08:37;;;;;;;25.12;8.63;;;;;;;32.70;51.90;100414.91;1750019;82;20916;-44
2022/08/20 11:11:05;;;;;;;30.40;15.43;;;;;;;32.47;51.82;100421.06;1749837;82;21917;-44
2022/08/20 11:13:34;;;;;;;22.62;10.53;;;;;;;32.05;53.48;100419.81;1749916;82;20906;-44
2022/08/20 11:16:01;;;;;;;29.52;7.25;;;;;;;31.48;53.60;100421.51;1749970;82;21428;-44
2022/08/20 11:18:29;;;;;;;26.85;6.90;;;;;;;31.16;55.18;100417.75;1749822;81;20893;-44
2022/08/20 11:20:56;;;;;;;31.52;7.00;;;;;;;31.30;56.04;100416.30;1749667;80;20983;-44
2022/08/20 11:23:23;;;;;;;29.57;7.22;;;;;;;31.60;57.47;100422.50;1749655;82;22086;-44
2022/08/20 11:25:50;;;;;;;29.65;7.37;;;;;;;31.83;57.15;100416.02;1749869;82;20959;-44
2022/08/20 11:28:17;;;;;;;22.60;7.03;;;;;;;32.16;58.06;100419.95;1749983;82;20976;-44